FIN64R EGKK-EFHK
Flight info
| Callsign | FIN64R |
|---|---|
| Flight time | 2h 39m |
| Altitude | 39000 |
| Route | FRANE M604 PAAVO Q295 SOMVA DCT MAVAS DCT MAXUN DCT AMRAK P999 ALS T153 TUDLO DCT EVBAS DCT LUPET DCT RIRIP Y364 LAKUT |
| Aircraft | A20N/M-SDE2E3FGHIRWXY/LB1 |
Departure
| Time | 2026-04-22 14:24 |
|---|---|
| Airport | London Gatwick Airport (EGKK) |
Arrival
| Time | 2026-04-22 17:03 |
|---|---|
| Airport | Helsinki Vantaa Airport (EFHK) |
| Time | Latitude | Longitude | Altitude | Speed | Heading |
|---|---|---|---|---|---|
| 2026-04-22 13:58 | 51.15565 | -0.17821 | 207 ft | 0 kts | 347° |
| 2026-04-22 14:14 | 51.15544 | -0.17812 | 212 ft | 4 kts | 334° |
| 2026-04-22 14:15 | 51.15523 | -0.17788 | 217 ft | 4 kts | 308° |
| 2026-04-22 14:15 | 51.15510 | -0.17751 | 206 ft | 4 kts | 278° |
| 2026-04-22 14:15 | 51.15510 | -0.17724 | 204 ft | 1 kts | 260° |
| 2026-04-22 14:18 | 51.15510 | -0.17725 | 204 ft | 1 kts | 260° |
| 2026-04-22 14:18 | 51.15505 | -0.17758 | 208 ft | 8 kts | 258° |
| 2026-04-22 14:18 | 51.15484 | -0.17920 | 208 ft | 19 kts | 258° |
| 2026-04-22 14:18 | 51.15451 | -0.18148 | 204 ft | 23 kts | 256° |
| 2026-04-22 14:19 | 51.15376 | -0.18269 | 207 ft | 15 kts | 163° |
| 2026-04-22 14:19 | 51.15264 | -0.18227 | 213 ft | 18 kts | 169° |
| 2026-04-22 14:19 | 51.15179 | -0.18313 | 207 ft | 17 kts | 261° |
| 2026-04-22 14:19 | 51.15160 | -0.18522 | 213 ft | 21 kts | 259° |
| 2026-04-22 14:20 | 51.15090 | -0.19040 | 208 ft | 27 kts | 258° |
| 2026-04-22 14:20 | 51.15046 | -0.19350 | 206 ft | 30 kts | 257° |
| 2026-04-22 14:20 | 51.14998 | -0.19688 | 210 ft | 33 kts | 257° |
| 2026-04-22 14:21 | 51.14895 | -0.20447 | 213 ft | 37 kts | 257° |
| 2026-04-22 14:21 | 51.14837 | -0.20862 | 210 ft | 39 kts | 258° |
| 2026-04-22 14:22 | 51.14729 | -0.21401 | 211 ft | 0 kts | 200° |
| 2026-04-22 14:22 | 51.14728 | -0.21401 | 211 ft | 1 kts | 199° |
| 2026-04-22 14:23 | 51.14672 | -0.21376 | 205 ft | 18 kts | 141° |
| 2026-04-22 14:23 | 51.14547 | -0.21280 | 215 ft | 21 kts | 140° |
| 2026-04-22 14:23 | 51.14523 | -0.21201 | 211 ft | 2 kts | 82° |
| 2026-04-22 14:23 | 51.14538 | -0.21046 | 213 ft | 30 kts | 77° |
| 2026-04-22 14:24 | 51.14646 | -0.20280 | 213 ft | 108 kts | 77° |
| 2026-04-22 14:24 | 51.14849 | -0.18811 | 432 ft | 149 kts | 76° |
| 2026-04-22 14:24 | 51.15084 | -0.17155 | 1145 ft | 159 kts | 77° |
| 2026-04-22 14:24 | 51.15342 | -0.15370 | 1996 ft | 172 kts | 78° |
| 2026-04-22 14:25 | 51.15608 | -0.13439 | 2772 ft | 185 kts | 79° |
| 2026-04-22 14:25 | 51.15895 | -0.11337 | 3346 ft | 205 kts | 79° |
| 2026-04-22 14:25 | 51.16202 | -0.09094 | 4282 ft | 214 kts | 80° |
| 2026-04-22 14:25 | 51.16533 | -0.06638 | 4763 ft | 239 kts | 81° |
| 2026-04-22 14:26 | 51.16837 | -0.04006 | 4972 ft | 241 kts | 86° |
| 2026-04-22 14:26 | 51.16874 | -0.01255 | 5101 ft | 259 kts | 94° |
| 2026-04-22 14:26 | 51.16801 | 0.01763 | 5628 ft | 284 kts | 93° |
| 2026-04-22 14:26 | 51.16740 | 0.05002 | 6328 ft | 298 kts | 93° |
| 2026-04-22 14:27 | 51.16683 | 0.08311 | 7352 ft | 301 kts | 93° |
| 2026-04-22 14:27 | 51.16625 | 0.11687 | 8203 ft | 310 kts | 93° |
| 2026-04-22 14:27 | 51.16563 | 0.15156 | 9128 ft | 314 kts | 93° |
| 2026-04-22 14:27 | 51.16530 | 0.18663 | 10150 ft | 318 kts | 92° |
| 2026-04-22 14:28 | 51.16542 | 0.22222 | 10994 ft | 325 kts | 91° |
| 2026-04-22 14:28 | 51.16563 | 0.25832 | 11728 ft | 333 kts | 91° |
| 2026-04-22 14:28 | 51.16581 | 0.29531 | 12741 ft | 331 kts | 91° |
| 2026-04-22 14:28 | 51.16593 | 0.33216 | 13669 ft | 335 kts | 91° |
| 2026-04-22 14:29 | 51.16599 | 0.37000 | 14284 ft | 348 kts | 91° |
| 2026-04-22 14:29 | 51.16601 | 0.40887 | 14967 ft | 352 kts | 91° |
| 2026-04-22 14:29 | 51.16611 | 0.44765 | 15925 ft | 350 kts | 88° |
| 2026-04-22 14:29 | 51.17051 | 0.48617 | 16527 ft | 361 kts | 72° |
| 2026-04-22 14:30 | 51.18272 | 0.52160 | 17266 ft | 369 kts | 54° |
| 2026-04-22 14:30 | 51.20133 | 0.55003 | 18018 ft | 378 kts | 37° |
| 2026-04-22 14:30 | 51.22525 | 0.56876 | 18677 ft | 390 kts | 20° |
| 2026-04-22 14:30 | 51.25132 | 0.57924 | 19372 ft | 392 kts | 15° |
| 2026-04-22 14:31 | 51.27778 | 0.58863 | 20239 ft | 387 kts | 14° |
| 2026-04-22 14:31 | 51.30386 | 0.59782 | 21216 ft | 380 kts | 13° |
| 2026-04-22 14:31 | 51.32965 | 0.60714 | 21779 ft | 382 kts | 12° |
| 2026-04-22 14:31 | 51.35569 | 0.61671 | 22398 ft | 385 kts | 12° |
| 2026-04-22 14:32 | 51.38193 | 0.62648 | 23023 ft | 389 kts | 12° |
| 2026-04-22 14:32 | 51.40854 | 0.63647 | 23551 ft | 394 kts | 12° |
| 2026-04-22 14:32 | 51.43527 | 0.64663 | 24198 ft | 394 kts | 11° |
| 2026-04-22 14:32 | 51.46208 | 0.65685 | 24686 ft | 398 kts | 11° |
| 2026-04-22 14:33 | 51.48911 | 0.66715 | 25175 ft | 401 kts | 11° |
| 2026-04-22 14:33 | 51.51634 | 0.67752 | 25641 ft | 404 kts | 11° |
| 2026-04-22 14:33 | 51.54376 | 0.68798 | 26099 ft | 406 kts | 11° |
| 2026-04-22 14:33 | 51.57103 | 0.69839 | 26547 ft | 409 kts | 11° |
| 2026-04-22 14:34 | 51.59891 | 0.70902 | 26987 ft | 412 kts | 11° |
| 2026-04-22 14:34 | 51.62691 | 0.71969 | 27421 ft | 415 kts | 11° |
| 2026-04-22 14:34 | 51.65511 | 0.73045 | 27848 ft | 417 kts | 11° |
| 2026-04-22 14:34 | 51.68350 | 0.74130 | 28262 ft | 420 kts | 11° |
| 2026-04-22 14:35 | 51.71202 | 0.75221 | 28656 ft | 422 kts | 10° |
| 2026-04-22 14:35 | 51.74073 | 0.76320 | 29028 ft | 425 kts | 10° |
| 2026-04-22 14:35 | 51.76983 | 0.77205 | 29385 ft | 427 kts | 9° |
| 2026-04-22 14:35 | 51.79841 | 0.78582 | 29724 ft | 434 kts | 19° |
| 2026-04-22 14:36 | 51.82530 | 0.80884 | 30085 ft | 441 kts | 29° |
| 2026-04-22 14:36 | 51.84966 | 0.83836 | 30429 ft | 448 kts | 38° |
| 2026-04-22 14:36 | 51.87063 | 0.87632 | 30706 ft | 458 kts | 50° |
| 2026-04-22 14:36 | 51.88654 | 0.92164 | 30970 ft | 468 kts | 62° |
| 2026-04-22 14:37 | 51.89831 | 0.97108 | 31238 ft | 473 kts | 66° |
| 2026-04-22 14:37 | 51.90915 | 1.02122 | 31709 ft | 470 kts | 66° |
| 2026-04-22 14:37 | 51.92034 | 1.07099 | 31983 ft | 470 kts | 65° |
| 2026-04-22 14:37 | 51.93215 | 1.12050 | 32243 ft | 471 kts | 64° |
| 2026-04-22 14:38 | 51.94437 | 1.16978 | 32524 ft | 471 kts | 63° |
| 2026-04-22 14:38 | 51.95676 | 1.21892 | 32803 ft | 471 kts | 63° |
| 2026-04-22 14:38 | 51.96922 | 1.26800 | 33073 ft | 471 kts | 63° |
| 2026-04-22 14:38 | 51.98172 | 1.31730 | 33337 ft | 472 kts | 63° |
| 2026-04-22 14:39 | 51.99420 | 1.36661 | 33607 ft | 472 kts | 63° |
| 2026-04-22 14:39 | 52.00649 | 1.41534 | 33861 ft | 473 kts | 63° |
| 2026-04-22 14:39 | 52.01892 | 1.46475 | 34108 ft | 473 kts | 63° |
| 2026-04-22 14:40 | 52.03957 | 1.54710 | 34746 ft | 467 kts | 64° |
| 2026-04-22 14:40 | 52.05574 | 1.61177 | 35108 ft | 466 kts | 64° |
| 2026-04-22 14:40 | 52.06790 | 1.66053 | 35303 ft | 466 kts | 64° |
| 2026-04-22 14:40 | 52.08004 | 1.70933 | 35586 ft | 463 kts | 64° |
| 2026-04-22 14:41 | 52.09191 | 1.75724 | 36308 ft | 451 kts | 64° |
| 2026-04-22 14:41 | 52.10356 | 1.80432 | 36740 ft | 447 kts | 65° |
| 2026-04-22 14:41 | 52.11575 | 1.85077 | 36998 ft | 445 kts | 59° |
| 2026-04-22 14:41 | 52.13007 | 1.89527 | 37232 ft | 444 kts | 58° |
| 2026-04-22 14:42 | 52.14479 | 1.93959 | 37458 ft | 444 kts | 58° |
| 2026-04-22 14:42 | 52.15949 | 1.98381 | 37724 ft | 443 kts | 59° |
| 2026-04-22 14:42 | 52.17391 | 2.02748 | 37963 ft | 443 kts | 59° |
| 2026-04-22 14:42 | 52.18844 | 2.07184 | 38170 ft | 443 kts | 59° |
| 2026-04-22 14:43 | 52.20290 | 2.11618 | 38389 ft | 443 kts | 59° |
| 2026-04-22 14:43 | 52.21732 | 2.16066 | 38585 ft | 443 kts | 59° |
| 2026-04-22 14:43 | 52.23172 | 2.20517 | 38784 ft | 443 kts | 59° |
| 2026-04-22 14:43 | 52.24609 | 2.24973 | 38975 ft | 443 kts | 59° |
| 2026-04-22 14:44 | 52.26039 | 2.29416 | 39126 ft | 443 kts | 59° |
| 2026-04-22 14:44 | 52.27472 | 2.33873 | 39262 ft | 443 kts | 60° |
| 2026-04-22 14:44 | 52.30339 | 2.42818 | 39398 ft | 445 kts | 60° |
| 2026-04-22 14:45 | 52.33185 | 2.51732 | 39403 ft | 442 kts | 60° |
| 2026-04-22 14:45 | 52.36021 | 2.60649 | 39406 ft | 442 kts | 60° |
| 2026-04-22 14:46 | 52.38857 | 2.69594 | 39403 ft | 442 kts | 60° |
| 2026-04-22 14:46 | 52.41683 | 2.78544 | 39403 ft | 442 kts | 60° |
| 2026-04-22 14:47 | 52.44504 | 2.87511 | 39411 ft | 442 kts | 60° |
| 2026-04-22 14:47 | 52.47319 | 2.96490 | 39412 ft | 442 kts | 60° |
| 2026-04-22 14:48 | 52.50111 | 3.05428 | 39407 ft | 436 kts | 61° |
| 2026-04-22 14:48 | 52.52875 | 3.14311 | 39409 ft | 438 kts | 61° |
| 2026-04-22 14:49 | 52.55646 | 3.23248 | 39408 ft | 438 kts | 61° |
| 2026-04-22 14:49 | 52.58388 | 3.32125 | 39409 ft | 438 kts | 61° |
| 2026-04-22 14:50 | 52.61142 | 3.41075 | 39409 ft | 438 kts | 61° |
| 2026-04-22 14:50 | 52.63889 | 3.50031 | 39414 ft | 438 kts | 62° |
| 2026-04-22 14:51 | 52.66629 | 3.59002 | 39414 ft | 438 kts | 62° |
| 2026-04-22 14:51 | 52.69361 | 3.67979 | 39417 ft | 438 kts | 62° |
| 2026-04-22 14:52 | 52.72086 | 3.76961 | 39421 ft | 438 kts | 62° |
| 2026-04-22 14:52 | 52.74799 | 3.85946 | 39422 ft | 438 kts | 62° |
| 2026-04-22 14:53 | 52.77492 | 3.94894 | 39422 ft | 437 kts | 62° |
| 2026-04-22 14:53 | 52.80194 | 4.03904 | 39436 ft | 438 kts | 63° |
| 2026-04-22 14:54 | 52.82888 | 4.12923 | 39425 ft | 437 kts | 63° |
| 2026-04-22 14:54 | 52.85576 | 4.21958 | 39425 ft | 437 kts | 63° |
| 2026-04-22 14:55 | 52.88255 | 4.30997 | 39428 ft | 437 kts | 63° |
| 2026-04-22 14:55 | 52.90929 | 4.40051 | 39428 ft | 437 kts | 63° |
| 2026-04-22 14:56 | 52.93580 | 4.49064 | 39424 ft | 436 kts | 63° |
| 2026-04-22 14:56 | 52.96234 | 4.58119 | 39425 ft | 436 kts | 63° |
| 2026-04-22 14:57 | 52.98881 | 4.67186 | 39428 ft | 436 kts | 63° |
| 2026-04-22 14:57 | 53.01504 | 4.76209 | 39428 ft | 436 kts | 63° |
| 2026-04-22 14:58 | 53.04135 | 4.85289 | 39427 ft | 436 kts | 63° |
| 2026-04-22 14:58 | 53.06759 | 4.94383 | 39428 ft | 436 kts | 63° |
| 2026-04-22 14:59 | 53.09376 | 5.03486 | 39428 ft | 436 kts | 63° |
| 2026-04-22 14:59 | 53.11990 | 5.12614 | 39427 ft | 435 kts | 63° |
| 2026-04-22 15:00 | 53.14149 | 5.20183 | 39419 ft | 435 kts | 64° |
| 2026-04-22 15:00 | 53.17153 | 5.30748 | 39427 ft | 434 kts | 64° |
| 2026-04-22 15:01 | 53.19732 | 5.39860 | 39426 ft | 434 kts | 64° |
| 2026-04-22 15:01 | 53.21876 | 5.47461 | 39425 ft | 434 kts | 64° |
| 2026-04-22 15:02 | 53.24441 | 5.56587 | 39427 ft | 434 kts | 64° |
| 2026-04-22 15:02 | 53.26999 | 5.65724 | 39434 ft | 435 kts | 64° |
| 2026-04-22 15:03 | 53.29542 | 5.74844 | 39427 ft | 435 kts | 64° |
| 2026-04-22 15:03 | 53.32093 | 5.84026 | 39428 ft | 435 kts | 64° |
| 2026-04-22 15:04 | 53.34632 | 5.93207 | 39431 ft | 434 kts | 64° |
| 2026-04-22 15:04 | 53.37164 | 6.02394 | 39433 ft | 434 kts | 64° |
| 2026-04-22 15:05 | 53.39692 | 6.11606 | 39437 ft | 435 kts | 64° |
| 2026-04-22 15:05 | 53.42210 | 6.20814 | 39433 ft | 435 kts | 64° |
| 2026-04-22 15:06 | 53.44722 | 6.30041 | 39434 ft | 435 kts | 64° |
| 2026-04-22 15:06 | 53.47213 | 6.39226 | 39433 ft | 435 kts | 64° |
| 2026-04-22 15:07 | 53.49712 | 6.48473 | 39426 ft | 435 kts | 64° |
| 2026-04-22 15:07 | 53.52209 | 6.57728 | 39429 ft | 435 kts | 64° |
| 2026-04-22 15:08 | 53.55002 | 6.66716 | 39425 ft | 433 kts | 54° |
| 2026-04-22 15:08 | 53.58584 | 6.74883 | 39438 ft | 432 kts | 53° |
| 2026-04-22 15:09 | 53.62154 | 6.83018 | 39430 ft | 431 kts | 53° |
| 2026-04-22 15:09 | 53.65713 | 6.91173 | 39428 ft | 432 kts | 53° |
| 2026-04-22 15:10 | 53.69238 | 6.99289 | 39428 ft | 431 kts | 53° |
| 2026-04-22 15:10 | 53.72787 | 7.07486 | 39430 ft | 431 kts | 53° |
| 2026-04-22 15:11 | 53.76322 | 7.15680 | 39430 ft | 432 kts | 54° |
| 2026-04-22 15:11 | 53.79851 | 7.23884 | 39427 ft | 430 kts | 54° |
| 2026-04-22 15:12 | 53.83362 | 7.32073 | 39433 ft | 430 kts | 54° |
| 2026-04-22 15:12 | 53.86843 | 7.40219 | 39432 ft | 429 kts | 54° |
| 2026-04-22 15:13 | 53.90343 | 7.48436 | 39427 ft | 429 kts | 54° |
| 2026-04-22 15:13 | 53.93836 | 7.56665 | 39429 ft | 429 kts | 54° |
| 2026-04-22 15:14 | 53.97325 | 7.64911 | 39423 ft | 429 kts | 54° |
| 2026-04-22 15:14 | 54.00802 | 7.73157 | 39420 ft | 428 kts | 55° |
| 2026-04-22 15:15 | 54.04240 | 7.81333 | 39423 ft | 428 kts | 55° |
| 2026-04-22 15:15 | 54.07697 | 7.89584 | 39421 ft | 428 kts | 55° |
| 2026-04-22 15:16 | 54.11146 | 7.97845 | 39422 ft | 426 kts | 55° |
| 2026-04-22 15:16 | 54.14580 | 8.06095 | 39410 ft | 426 kts | 55° |
| 2026-04-22 15:17 | 54.18012 | 8.14368 | 39405 ft | 426 kts | 55° |
| 2026-04-22 15:17 | 54.21438 | 8.22657 | 39408 ft | 426 kts | 55° |
| 2026-04-22 15:18 | 54.24821 | 8.30864 | 39398 ft | 424 kts | 56° |
| 2026-04-22 15:18 | 54.28220 | 8.39140 | 39398 ft | 425 kts | 56° |
| 2026-04-22 15:19 | 54.31613 | 8.47428 | 39397 ft | 424 kts | 56° |
| 2026-04-22 15:19 | 54.34992 | 8.55712 | 39388 ft | 424 kts | 56° |
| 2026-04-22 15:20 | 54.38359 | 8.63991 | 39385 ft | 422 kts | 56° |
| 2026-04-22 15:20 | 54.41717 | 8.72274 | 39384 ft | 423 kts | 56° |
| 2026-04-22 15:21 | 54.45044 | 8.80511 | 39372 ft | 419 kts | 56° |
| 2026-04-22 15:21 | 54.48359 | 8.88745 | 39373 ft | 420 kts | 56° |
| 2026-04-22 15:22 | 54.51676 | 8.97012 | 39370 ft | 420 kts | 56° |
| 2026-04-22 15:22 | 54.54990 | 9.05298 | 39359 ft | 420 kts | 57° |
| 2026-04-22 15:23 | 54.58297 | 9.13593 | 39359 ft | 420 kts | 57° |
| 2026-04-22 15:23 | 54.61594 | 9.21892 | 39353 ft | 418 kts | 57° |
| 2026-04-22 15:24 | 54.64873 | 9.30174 | 39352 ft | 418 kts | 57° |
| 2026-04-22 15:24 | 54.68128 | 9.38420 | 39339 ft | 413 kts | 57° |
| 2026-04-22 15:25 | 54.71365 | 9.46651 | 39341 ft | 415 kts | 57° |
| 2026-04-22 15:25 | 54.74582 | 9.54856 | 39339 ft | 414 kts | 57° |
| 2026-04-22 15:26 | 54.77818 | 9.63136 | 39336 ft | 414 kts | 57° |
| 2026-04-22 15:26 | 54.81047 | 9.71418 | 39330 ft | 414 kts | 57° |
| 2026-04-22 15:27 | 54.84057 | 9.79941 | 39328 ft | 414 kts | 61° |
| 2026-04-22 15:27 | 54.86929 | 9.88522 | 39334 ft | 411 kts | 60° |
| 2026-04-22 15:28 | 54.89864 | 9.97030 | 39345 ft | 411 kts | 56° |
| 2026-04-22 15:28 | 54.93585 | 10.04616 | 39342 ft | 414 kts | 47° |
| 2026-04-22 15:29 | 54.97650 | 10.11702 | 39336 ft | 413 kts | 47° |
| 2026-04-22 15:30 | 55.03703 | 10.22355 | 39328 ft | 413 kts | 47° |
| 2026-04-22 15:30 | 55.07754 | 10.29496 | 39320 ft | 413 kts | 47° |
| 2026-04-22 15:31 | 55.11794 | 10.36634 | 39306 ft | 413 kts | 47° |
| 2026-04-22 15:31 | 55.15803 | 10.43744 | 39305 ft | 413 kts | 47° |
| 2026-04-22 15:32 | 55.19831 | 10.50907 | 39307 ft | 413 kts | 48° |
| 2026-04-22 15:32 | 55.23859 | 10.58092 | 39304 ft | 413 kts | 48° |
| 2026-04-22 15:33 | 55.27862 | 10.65320 | 39304 ft | 412 kts | 51° |
| 2026-04-22 15:33 | 55.31598 | 10.72949 | 39284 ft | 412 kts | 51° |
| 2026-04-22 15:34 | 55.35349 | 10.80555 | 39300 ft | 411 kts | 51° |
| 2026-04-22 15:34 | 55.39087 | 10.88178 | 39299 ft | 411 kts | 51° |
| 2026-04-22 15:35 | 55.42187 | 10.94526 | 39292 ft | 411 kts | 51° |
| 2026-04-22 15:35 | 55.46514 | 11.03421 | 39293 ft | 411 kts | 52° |
| 2026-04-22 15:36 | 55.50232 | 11.11088 | 39287 ft | 411 kts | 52° |
| 2026-04-22 15:36 | 55.53946 | 11.18773 | 39293 ft | 411 kts | 52° |
| 2026-04-22 15:37 | 55.57659 | 11.26479 | 39286 ft | 411 kts | 52° |
| 2026-04-22 15:37 | 55.61376 | 11.34221 | 39285 ft | 417 kts | 52° |
| 2026-04-22 15:38 | 55.65154 | 11.42115 | 39284 ft | 424 kts | 52° |
| 2026-04-22 15:38 | 55.70916 | 11.54199 | 39282 ft | 431 kts | 52° |
| 2026-04-22 15:39 | 55.74791 | 11.62360 | 39278 ft | 433 kts | 52° |
| 2026-04-22 15:39 | 55.78645 | 11.70505 | 39277 ft | 434 kts | 52° |
| 2026-04-22 15:40 | 55.82530 | 11.78743 | 39274 ft | 435 kts | 52° |
| 2026-04-22 15:40 | 55.86411 | 11.87001 | 39274 ft | 435 kts | 52° |
| 2026-04-22 15:41 | 55.90291 | 11.95288 | 39277 ft | 436 kts | 52° |
| 2026-04-22 15:41 | 55.94168 | 12.03594 | 39270 ft | 436 kts | 52° |
| 2026-04-22 15:42 | 55.98040 | 12.11919 | 39248 ft | 435 kts | 52° |
| 2026-04-22 15:42 | 56.01899 | 12.20242 | 39268 ft | 434 kts | 53° |
| 2026-04-22 15:43 | 56.05722 | 12.28519 | 39265 ft | 434 kts | 53° |
| 2026-04-22 15:43 | 56.09563 | 12.36863 | 39265 ft | 434 kts | 53° |
| 2026-04-22 15:44 | 56.13401 | 12.45227 | 39254 ft | 433 kts | 53° |
| 2026-04-22 15:44 | 56.17502 | 12.53167 | 39254 ft | 435 kts | 48° |
| 2026-04-22 15:45 | 56.21735 | 12.60870 | 39253 ft | 434 kts | 48° |
| 2026-04-22 15:45 | 56.25982 | 12.68611 | 39250 ft | 434 kts | 48° |
| 2026-04-22 15:46 | 56.30221 | 12.76359 | 39238 ft | 434 kts | 48° |
| 2026-04-22 15:46 | 56.34454 | 12.84124 | 39238 ft | 433 kts | 48° |
| 2026-04-22 15:47 | 56.38651 | 12.91855 | 39239 ft | 433 kts | 48° |
| 2026-04-22 15:47 | 56.42764 | 12.99454 | 39235 ft | 406 kts | 49° |
| 2026-04-22 15:48 | 56.44696 | 13.03033 | 39232 ft | 391 kts | 49° |
| 2026-04-22 15:48 | 56.46596 | 13.06569 | 39235 ft | 394 kts | 49° |
| 2026-04-22 15:48 | 56.50459 | 13.13779 | 39225 ft | 402 kts | 49° |
| 2026-04-22 15:49 | 56.53692 | 13.19819 | 39227 ft | 401 kts | 49° |
| 2026-04-22 15:49 | 56.58209 | 13.28278 | 39219 ft | 401 kts | 49° |
| 2026-04-22 15:50 | 56.61461 | 13.34391 | 39206 ft | 401 kts | 49° |
| 2026-04-22 15:50 | 56.65334 | 13.41690 | 39206 ft | 401 kts | 49° |
| 2026-04-22 15:51 | 56.69158 | 13.48919 | 39199 ft | 397 kts | 49° |
| 2026-04-22 15:51 | 56.72975 | 13.56162 | 39197 ft | 396 kts | 49° |
| 2026-04-22 15:52 | 56.76788 | 13.63419 | 39192 ft | 396 kts | 49° |
| 2026-04-22 15:52 | 56.80594 | 13.70683 | 39179 ft | 396 kts | 49° |
| 2026-04-22 15:53 | 56.84398 | 13.77968 | 39173 ft | 396 kts | 49° |
| 2026-04-22 15:53 | 56.88195 | 13.85259 | 39173 ft | 396 kts | 49° |
| 2026-04-22 15:54 | 56.91928 | 13.92452 | 39172 ft | 390 kts | 49° |
| 2026-04-22 15:54 | 56.95671 | 13.99687 | 39169 ft | 392 kts | 49° |
| 2026-04-22 15:55 | 56.99407 | 14.06931 | 39163 ft | 391 kts | 49° |
| 2026-04-22 15:55 | 57.03150 | 14.14210 | 39159 ft | 391 kts | 49° |
| 2026-04-22 15:56 | 57.06885 | 14.21497 | 39159 ft | 391 kts | 49° |
| 2026-04-22 15:56 | 57.10608 | 14.28785 | 39158 ft | 391 kts | 49° |
| 2026-04-22 15:57 | 57.14279 | 14.35994 | 39154 ft | 385 kts | 49° |
| 2026-04-22 15:57 | 57.17947 | 14.43221 | 39155 ft | 386 kts | 49° |
| 2026-04-22 15:58 | 57.21618 | 14.50472 | 39154 ft | 386 kts | 49° |
| 2026-04-22 15:58 | 57.25274 | 14.57719 | 39155 ft | 386 kts | 49° |
| 2026-04-22 15:59 | 57.28929 | 14.64985 | 39154 ft | 386 kts | 49° |
| 2026-04-22 15:59 | 57.32557 | 14.72219 | 39150 ft | 386 kts | 49° |
| 2026-04-22 16:00 | 57.36188 | 14.79487 | 39155 ft | 382 kts | 49° |
| 2026-04-22 16:00 | 57.39810 | 14.86754 | 39152 ft | 383 kts | 49° |
| 2026-04-22 16:01 | 57.43429 | 14.94039 | 39150 ft | 384 kts | 49° |
| 2026-04-22 16:01 | 57.47046 | 15.01340 | 39147 ft | 384 kts | 49° |
| 2026-04-22 16:02 | 57.50637 | 15.08615 | 39151 ft | 383 kts | 49° |
| 2026-04-22 16:02 | 57.54242 | 15.15941 | 39139 ft | 383 kts | 49° |
| 2026-04-22 16:03 | 57.57843 | 15.23287 | 39132 ft | 383 kts | 48° |
| 2026-04-22 16:03 | 57.61411 | 15.30583 | 39138 ft | 383 kts | 48° |
| 2026-04-22 16:04 | 57.65002 | 15.37947 | 39140 ft | 383 kts | 48° |
| 2026-04-22 16:04 | 57.68588 | 15.45327 | 39129 ft | 383 kts | 48° |
| 2026-04-22 16:05 | 57.72166 | 15.52712 | 39126 ft | 383 kts | 48° |
| 2026-04-22 16:05 | 57.75720 | 15.60072 | 39124 ft | 383 kts | 49° |
| 2026-04-22 16:06 | 57.79292 | 15.67494 | 39126 ft | 383 kts | 49° |
| 2026-04-22 16:06 | 57.82856 | 15.74922 | 39119 ft | 383 kts | 49° |
| 2026-04-22 16:07 | 57.86419 | 15.82372 | 39110 ft | 383 kts | 49° |
| 2026-04-22 16:07 | 57.89949 | 15.89778 | 39111 ft | 383 kts | 49° |
| 2026-04-22 16:08 | 57.93504 | 15.97258 | 39110 ft | 383 kts | 49° |
| 2026-04-22 16:08 | 57.97051 | 16.04746 | 39109 ft | 383 kts | 49° |
| 2026-04-22 16:09 | 58.00598 | 16.12260 | 39109 ft | 382 kts | 49° |
| 2026-04-22 16:09 | 58.04158 | 16.19826 | 39099 ft | 387 kts | 48° |
| 2026-04-22 16:10 | 58.07701 | 16.27375 | 39098 ft | 385 kts | 48° |
| 2026-04-22 16:10 | 58.11249 | 16.34963 | 39094 ft | 386 kts | 48° |
| 2026-04-22 16:11 | 58.14801 | 16.42585 | 39090 ft | 386 kts | 48° |
| 2026-04-22 16:11 | 58.18346 | 16.50215 | 39085 ft | 386 kts | 48° |
| 2026-04-22 16:12 | 58.21885 | 16.57860 | 39080 ft | 386 kts | 49° |
| 2026-04-22 16:12 | 58.25427 | 16.65535 | 39080 ft | 387 kts | 48° |
| 2026-04-22 16:13 | 58.28954 | 16.73203 | 39076 ft | 387 kts | 48° |
| 2026-04-22 16:13 | 58.32494 | 16.80923 | 39074 ft | 387 kts | 48° |
| 2026-04-22 16:14 | 58.36027 | 16.88654 | 39071 ft | 387 kts | 48° |
| 2026-04-22 16:14 | 58.39559 | 16.96410 | 39065 ft | 387 kts | 48° |
| 2026-04-22 16:15 | 58.43085 | 17.04181 | 39087 ft | 387 kts | 48° |
| 2026-04-22 16:15 | 58.46569 | 17.11885 | 39064 ft | 386 kts | 48° |
| 2026-04-22 16:16 | 58.50094 | 17.19702 | 39063 ft | 387 kts | 48° |
| 2026-04-22 16:16 | 58.53603 | 17.27509 | 39057 ft | 387 kts | 48° |
| 2026-04-22 16:17 | 58.57095 | 17.35303 | 39054 ft | 387 kts | 48° |
| 2026-04-22 16:17 | 58.60595 | 17.43144 | 39053 ft | 387 kts | 48° |
| 2026-04-22 16:18 | 58.64090 | 17.51000 | 39049 ft | 387 kts | 48° |
| 2026-04-22 16:18 | 58.67582 | 17.58877 | 39048 ft | 387 kts | 48° |
| 2026-04-22 16:19 | 58.71042 | 17.66716 | 39042 ft | 380 kts | 47° |
| 2026-04-22 16:19 | 58.74450 | 17.74449 | 39040 ft | 383 kts | 47° |
| 2026-04-22 16:20 | 58.77886 | 17.82274 | 39039 ft | 382 kts | 47° |
| 2026-04-22 16:20 | 58.81315 | 17.90112 | 39039 ft | 382 kts | 47° |
| 2026-04-22 16:21 | 58.84744 | 17.97976 | 39034 ft | 382 kts | 47° |
| 2026-04-22 16:21 | 58.88156 | 18.05829 | 39031 ft | 381 kts | 47° |
| 2026-04-22 16:22 | 58.93248 | 18.17598 | 39026 ft | 382 kts | 46° |
| 2026-04-22 16:23 | 58.98355 | 18.29464 | 39027 ft | 382 kts | 47° |
| 2026-04-22 16:23 | 59.01758 | 18.37402 | 39025 ft | 382 kts | 47° |
| 2026-04-22 16:24 | 59.06847 | 18.49323 | 39017 ft | 382 kts | 47° |
| 2026-04-22 16:25 | 59.10236 | 18.57296 | 39015 ft | 382 kts | 47° |
| 2026-04-22 16:25 | 59.15308 | 18.69284 | 39015 ft | 382 kts | 46° |
| 2026-04-22 16:26 | 59.18683 | 18.77289 | 39010 ft | 382 kts | 46° |
| 2026-04-22 16:26 | 59.22031 | 18.85259 | 39007 ft | 382 kts | 46° |
| 2026-04-22 16:27 | 59.25395 | 18.93296 | 39007 ft | 382 kts | 46° |
| 2026-04-22 16:27 | 59.28754 | 19.01349 | 39007 ft | 382 kts | 46° |
| 2026-04-22 16:28 | 59.32111 | 19.09424 | 39007 ft | 382 kts | 46° |
| 2026-04-22 16:28 | 59.35461 | 19.17511 | 39003 ft | 381 kts | 46° |
| 2026-04-22 16:29 | 59.38800 | 19.25597 | 38999 ft | 381 kts | 46° |
| 2026-04-22 16:29 | 59.42115 | 19.33653 | 38999 ft | 381 kts | 46° |
| 2026-04-22 16:30 | 59.45441 | 19.41766 | 38996 ft | 381 kts | 46° |
| 2026-04-22 16:30 | 59.48762 | 19.49893 | 38996 ft | 381 kts | 46° |
| 2026-04-22 16:31 | 59.52084 | 19.58044 | 38991 ft | 381 kts | 46° |
| 2026-04-22 16:31 | 59.55404 | 19.66208 | 38991 ft | 381 kts | 46° |
| 2026-04-22 16:32 | 59.58741 | 19.74437 | 38990 ft | 386 kts | 46° |
| 2026-04-22 16:32 | 59.62062 | 19.82662 | 38985 ft | 385 kts | 46° |
| 2026-04-22 16:33 | 59.65315 | 19.91135 | 38985 ft | 387 kts | 50° |
| 2026-04-22 16:33 | 59.68487 | 19.99754 | 39004 ft | 387 kts | 47° |
| 2026-04-22 16:34 | 59.71685 | 20.08273 | 38974 ft | 385 kts | 48° |
| 2026-04-22 16:34 | 59.74841 | 20.16778 | 38974 ft | 386 kts | 48° |
| 2026-04-22 16:35 | 59.78011 | 20.25388 | 38961 ft | 387 kts | 48° |
| 2026-04-22 16:35 | 59.81204 | 20.34096 | 38967 ft | 390 kts | 48° |
| 2026-04-22 16:36 | 59.84385 | 20.42809 | 38959 ft | 389 kts | 48° |
| 2026-04-22 16:36 | 59.87562 | 20.51541 | 38953 ft | 390 kts | 48° |
| 2026-04-22 16:37 | 59.90716 | 20.60243 | 38952 ft | 390 kts | 48° |
| 2026-04-22 16:37 | 59.93885 | 20.69015 | 38953 ft | 390 kts | 48° |
| 2026-04-22 16:38 | 59.97047 | 20.77803 | 38944 ft | 390 kts | 48° |
| 2026-04-22 16:38 | 59.99671 | 20.85122 | 38935 ft | 390 kts | 49° |
| 2026-04-22 16:39 | 60.02825 | 20.93946 | 38925 ft | 390 kts | 49° |
| 2026-04-22 16:39 | 60.05977 | 21.02801 | 38966 ft | 390 kts | 49° |
| 2026-04-22 16:40 | 60.09122 | 21.11669 | 38928 ft | 390 kts | 48° |
| 2026-04-22 16:41 | 60.13810 | 21.24950 | 38916 ft | 390 kts | 48° |
| 2026-04-22 16:41 | 60.16944 | 21.33871 | 38913 ft | 390 kts | 48° |
| 2026-04-22 16:42 | 60.19715 | 21.43367 | 38914 ft | 407 kts | 63° |
| 2026-04-22 16:42 | 60.21119 | 21.54397 | 38912 ft | 399 kts | 69° |
| 2026-04-22 16:42 | 60.21697 | 21.59744 | 38907 ft | 383 kts | 69° |
| 2026-04-22 16:43 | 60.22247 | 21.64948 | 38636 ft | 377 kts | 68° |
| 2026-04-22 16:43 | 60.22801 | 21.70136 | 37785 ft | 382 kts | 68° |
| 2026-04-22 16:43 | 60.23366 | 21.75418 | 36466 ft | 391 kts | 69° |
| 2026-04-22 16:43 | 60.23947 | 21.80865 | 35030 ft | 405 kts | 69° |
| 2026-04-22 16:44 | 60.24536 | 21.86439 | 33480 ft | 419 kts | 69° |
| 2026-04-22 16:44 | 60.25149 | 21.92298 | 31766 ft | 434 kts | 69° |
| 2026-04-22 16:44 | 60.25770 | 21.98320 | 30197 ft | 444 kts | 70° |
| 2026-04-22 16:44 | 60.26395 | 22.04445 | 28562 ft | 448 kts | 70° |
| 2026-04-22 16:45 | 60.27023 | 22.10631 | 26832 ft | 454 kts | 70° |
| 2026-04-22 16:45 | 60.27667 | 22.16959 | 25335 ft | 465 kts | 71° |
| 2026-04-22 16:45 | 60.28319 | 22.23393 | 23990 ft | 472 kts | 71° |
| 2026-04-22 16:45 | 60.28974 | 22.29919 | 22627 ft | 476 kts | 71° |
| 2026-04-22 16:46 | 60.29617 | 22.36414 | 21697 ft | 468 kts | 71° |
| 2026-04-22 16:46 | 60.30228 | 22.42692 | 21205 ft | 442 kts | 71° |
| 2026-04-22 16:46 | 60.30805 | 22.48647 | 20654 ft | 420 kts | 70° |
| 2026-04-22 16:46 | 60.31342 | 22.54190 | 20350 ft | 396 kts | 69° |
| 2026-04-22 16:47 | 60.31873 | 22.59592 | 19742 ft | 390 kts | 68° |
| 2026-04-22 16:47 | 60.32403 | 22.64914 | 19307 ft | 385 kts | 68° |
| 2026-04-22 16:47 | 60.32932 | 22.70231 | 18945 ft | 387 kts | 68° |
| 2026-04-22 16:47 | 60.33456 | 22.75551 | 18635 ft | 386 kts | 68° |
| 2026-04-22 16:48 | 60.33973 | 22.80876 | 18284 ft | 385 kts | 68° |
| 2026-04-22 16:48 | 60.34480 | 22.86158 | 17907 ft | 382 kts | 68° |
| 2026-04-22 16:48 | 60.34982 | 22.91409 | 17492 ft | 379 kts | 68° |
| 2026-04-22 16:48 | 60.35477 | 22.96616 | 17103 ft | 376 kts | 68° |
| 2026-04-22 16:49 | 60.35969 | 23.01793 | 16715 ft | 374 kts | 68° |
| 2026-04-22 16:49 | 60.36456 | 23.06939 | 16329 ft | 372 kts | 69° |
| 2026-04-22 16:49 | 60.36938 | 23.12060 | 15943 ft | 370 kts | 69° |
| 2026-04-22 16:49 | 60.37416 | 23.17153 | 15567 ft | 368 kts | 69° |
| 2026-04-22 16:50 | 60.37884 | 23.22152 | 15178 ft | 365 kts | 69° |
| 2026-04-22 16:50 | 60.38174 | 23.27309 | 14814 ft | 375 kts | 80° |
| 2026-04-22 16:50 | 60.37837 | 23.32635 | 14458 ft | 386 kts | 91° |
| 2026-04-22 16:50 | 60.37272 | 23.37944 | 14104 ft | 386 kts | 93° |
| 2026-04-22 16:51 | 60.36652 | 23.43189 | 13749 ft | 379 kts | 94° |
| 2026-04-22 16:51 | 60.36018 | 23.48276 | 13377 ft | 366 kts | 95° |
| 2026-04-22 16:51 | 60.35397 | 23.53149 | 12979 ft | 354 kts | 94° |
| 2026-04-22 16:51 | 60.34792 | 23.57977 | 12589 ft | 356 kts | 94° |
| 2026-04-22 16:52 | 60.34187 | 23.62816 | 12191 ft | 351 kts | 95° |
| 2026-04-22 16:52 | 60.33589 | 23.67519 | 11802 ft | 340 kts | 95° |
| 2026-04-22 16:52 | 60.33008 | 23.72056 | 11417 ft | 327 kts | 95° |
| 2026-04-22 16:52 | 60.32451 | 23.76410 | 11032 ft | 314 kts | 94° |
| 2026-04-22 16:53 | 60.31913 | 23.80620 | 10657 ft | 305 kts | 94° |
| 2026-04-22 16:53 | 60.31392 | 23.84750 | 10295 ft | 308 kts | 94° |
| 2026-04-22 16:53 | 60.30865 | 23.88907 | 9920 ft | 304 kts | 94° |
| 2026-04-22 16:53 | 60.30339 | 23.93017 | 9381 ft | 301 kts | 95° |
| 2026-04-22 16:54 | 60.29816 | 23.97087 | 8823 ft | 296 kts | 95° |
| 2026-04-22 16:54 | 60.29301 | 24.01083 | 8245 ft | 292 kts | 95° |
| 2026-04-22 16:54 | 60.28790 | 24.05028 | 7682 ft | 289 kts | 96° |
| 2026-04-22 16:54 | 60.28286 | 24.08916 | 7154 ft | 284 kts | 96° |
| 2026-04-22 16:55 | 60.27788 | 24.12750 | 6927 ft | 285 kts | 96° |
| 2026-04-22 16:55 | 60.27285 | 24.16607 | 6830 ft | 282 kts | 96° |
| 2026-04-22 16:55 | 60.26788 | 24.20380 | 6735 ft | 273 kts | 96° |
| 2026-04-22 16:55 | 60.26307 | 24.23964 | 6599 ft | 256 kts | 96° |
| 2026-04-22 16:56 | 60.25855 | 24.27342 | 6322 ft | 246 kts | 95° |
| 2026-04-22 16:56 | 60.25428 | 24.30602 | 5878 ft | 243 kts | 95° |
| 2026-04-22 16:56 | 60.25001 | 24.33897 | 5380 ft | 243 kts | 95° |
| 2026-04-22 16:56 | 60.24572 | 24.37161 | 5039 ft | 236 kts | 95° |
| 2026-04-22 16:57 | 60.24155 | 24.40253 | 4861 ft | 221 kts | 95° |
| 2026-04-22 16:57 | 60.23764 | 24.43098 | 4761 ft | 200 kts | 94° |
| 2026-04-22 16:57 | 60.23405 | 24.45756 | 4367 ft | 195 kts | 93° |
| 2026-04-22 16:57 | 60.23059 | 24.48418 | 3899 ft | 197 kts | 93° |
| 2026-04-22 16:58 | 60.22830 | 24.50189 | 3629 ft | 198 kts | 94° |
| 2026-04-22 16:58 | 60.22359 | 24.53776 | 3144 ft | 198 kts | 94° |
| 2026-04-22 16:58 | 60.22002 | 24.56477 | 2715 ft | 201 kts | 95° |
| 2026-04-22 16:58 | 60.21648 | 24.59129 | 2397 ft | 193 kts | 96° |
| 2026-04-22 16:59 | 60.21288 | 24.61846 | 2314 ft | 205 kts | 96° |
| 2026-04-22 16:59 | 60.20919 | 24.64588 | 2305 ft | 202 kts | 97° |
| 2026-04-22 16:59 | 60.20865 | 24.67289 | 2308 ft | 187 kts | 63° |
| 2026-04-22 16:59 | 60.21518 | 24.69355 | 2313 ft | 172 kts | 38° |
| 2026-04-22 17:00 | 60.22353 | 24.71108 | 2304 ft | 173 kts | 36° |
| 2026-04-22 17:00 | 60.24026 | 24.74492 | 2303 ft | 170 kts | 36° |
| 2026-04-22 17:00 | 60.24815 | 24.76192 | 2302 ft | 165 kts | 37° |
| 2026-04-22 17:01 | 60.25589 | 24.77887 | 2295 ft | 161 kts | 37° |
| 2026-04-22 17:01 | 60.26304 | 24.79552 | 1949 ft | 154 kts | 39° |
| 2026-04-22 17:01 | 60.26978 | 24.81086 | 1658 ft | 140 kts | 36° |
| 2026-04-22 17:01 | 60.27628 | 24.82436 | 1376 ft | 128 kts | 36° |
| 2026-04-22 17:02 | 60.28239 | 24.83720 | 1084 ft | 127 kts | 36° |
| 2026-04-22 17:02 | 60.28853 | 24.85050 | 885 ft | 132 kts | 38° |
| 2026-04-22 17:02 | 60.29483 | 24.86436 | 693 ft | 135 kts | 38° |
| 2026-04-22 17:02 | 60.30103 | 24.87817 | 557 ft | 131 kts | 37° |
| 2026-04-22 17:03 | 60.30750 | 24.89194 | 397 ft | 139 kts | 38° |
| 2026-04-22 17:03 | 60.31419 | 24.90660 | 202 ft | 142 kts | 40° |
| 2026-04-22 17:03 | 60.32036 | 24.91969 | 160 ft | 108 kts | 47° |
| 2026-04-22 17:03 | 60.32397 | 24.92845 | 160 ft | 47 kts | 62° |
| 2026-04-22 17:04 | 60.32486 | 24.93471 | 161 ft | 43 kts | 77° |
| 2026-04-22 17:04 | 60.32531 | 24.93853 | 161 ft | 28 kts | 69° |
| 2026-04-22 17:04 | 60.32653 | 24.94168 | 161 ft | 29 kts | 45° |
| 2026-04-22 17:04 | 60.32796 | 24.94480 | 161 ft | 31 kts | 50° |
| 2026-04-22 17:05 | 60.32920 | 24.94758 | 161 ft | 16 kts | 57° |
| 2026-04-22 17:05 | 60.32858 | 24.94939 | 161 ft | 22 kts | 161° |
| 2026-04-22 17:05 | 60.32693 | 24.95045 | 161 ft | 27 kts | 162° |
| 2026-04-22 17:05 | 60.32500 | 24.95167 | 161 ft | 31 kts | 162° |
| 2026-04-22 17:06 | 60.32316 | 24.95314 | 161 ft | 10 kts | 143° |
| 2026-04-22 17:06 | 60.32251 | 24.95430 | 161 ft | 18 kts | 136° |
| 2026-04-22 17:06 | 60.32201 | 24.95524 | 161 ft | 4 kts | 137° |
| 2026-04-22 17:06 | 60.32118 | 24.95676 | 161 ft | 22 kts | 137° |
| 2026-04-22 17:07 | 60.32007 | 24.95872 | 162 ft | 20 kts | 139° |
| 2026-04-22 17:07 | 60.31955 | 24.95979 | 161 ft | 0 kts | 137° |
| 2026-04-22 17:08 | 60.31954 | 24.95979 | 161 ft | 0 kts | 142° |
| 2026-04-22 17:08 | 60.31935 | 24.95956 | 161 ft | 14 kts | 214° |
| 2026-04-22 17:08 | 60.31817 | 24.95716 | 161 ft | 28 kts | 228° |
| 2026-04-22 17:08 | 60.31683 | 24.95412 | 161 ft | 30 kts | 229° |
| 2026-04-22 17:09 | 60.31539 | 24.95096 | 161 ft | 31 kts | 229° |
| 2026-04-22 17:09 | 60.31429 | 24.94998 | 161 ft | 15 kts | 138° |
| 2026-04-22 17:09 | 60.31374 | 24.95129 | 161 ft | 22 kts | 136° |
| 2026-04-22 17:09 | 60.31270 | 24.95327 | 161 ft | 6 kts | 137° |
| 2026-04-22 17:10 | 60.31175 | 24.95508 | 161 ft | 19 kts | 126° |
| 2026-04-22 17:10 | 60.31217 | 24.95717 | 161 ft | 17 kts | 47° |
| 2026-04-22 17:10 | 60.31293 | 24.95881 | 161 ft | 15 kts | 49° |
| 2026-04-22 17:10 | 60.31348 | 24.95934 | 161 ft | 5 kts | 337° |
| 2026-04-22 17:11 | 60.31371 | 24.95882 | 161 ft | 5 kts | 317° |
| 2026-04-22 17:11 | 60.31398 | 24.95845 | 161 ft | 4 kts | 331° |
| 2026-04-22 17:11 | 60.31401 | 24.95842 | 161 ft | 0 kts | 331° |